Time,TemperatureF,DewpointF,PressureIn,WindDirection,WindDirectionDegrees,WindSpeedMPH,WindSpeedGustMPH,Humidity,HourlyPrecipIn,Conditions,Clouds,dailyrainin,SoftwareType,DateUTC
2013-05-27 00:11:00,76.3,65.0,30.14,SSE,161,4.0,-999.0,67,-99.99,,,0.00,weatherlink.com 1.10,2013-05-27 04:11:00,
2013-05-27 00:25:00,76.4,66.0,30.14,ESE,111,1.0,-999.0,69,-99.99,,,0.00,weatherlink.com 1.10,2013-05-27 04:25:00,
2013-05-27 00:40:00,76.3,65.0,30.14,ENE,58,3.0,-999.0,68,-99.99,,,0.00,weatherlink.com 1.10,2013-05-27 04:40:00,
2013-05-27 00:55:00,76.2,65.0,30.14,SE,144,0.0,-999.0,69,-99.99,,,0.00,weatherlink.com 1.10,2013-05-27 04:55:00,
2013-05-27 01:10:00,76.1,65.0,30.14,SSE,148,4.0,-999.0,69,-99.99,,,0.00,weatherlink.com 1.10,2013-05-27 05:10:00,
2013-05-27 01:25:00,75.9,65.0,30.13,East,84,2.0,-999.0,68,-99.99,,,0.00,weatherlink.com 1.10,2013-05-27 05:25:00,
2013-05-27 01:40:00,75.5,65.0,30.13,East,99,2.0,-999.0,70,-99.99,,,0.00,weatherlink.com 1.10,2013-05-27 05:40:00,
2013-05-27 01:55:00,75.4,65.0,30.12,ESE,109,1.0,-999.0,71,-99.99,,,0.00,weatherlink.com 1.10,2013-05-27 05:55:00,
2013-05-27 02:10:00,75.5,65.0,30.12,SE,130,1.0,-999.0,70,-99.99,,,0.00,weatherlink.com 1.10,2013-05-27 06:10:00,
2013-05-27 02:25:00,75.3,65.0,30.11,East,96,5.0,-999.0,70,-99.99,,,0.00,weatherlink.com 1.10,2013-05-27 06:25:00,
2013-05-27 02:40:00,75.3,64.0,30.11,East,84,2.0,-999.0,69,-99.99,,,0.00,weatherlink.com 1.10,2013-05-27 06:40:00,
2013-05-27 02:55:00,75.3,65.0,30.10,SE,133,1.0,-999.0,70,-99.99,,,0.00,weatherlink.com 1.10,2013-05-27 06:55:00,
2013-05-27 03:10:00,74.9,65.0,30.10,ESE,111,1.0,-999.0,71,-99.99,,,0.00,weatherlink.com 1.10,2013-05-27 07:10:00,
2013-05-27 03:25:00,74.7,66.0,30.09,East,80,2.0,-999.0,74,-99.99,,,0.00,weatherlink.com 1.10,2013-05-27 07:25:00,
2013-05-27 03:40:00,74.6,66.0,30.09,NE,51,1.0,-999.0,75,-99.99,,,0.00,weatherlink.com 1.10,2013-05-27 07:40:00,
2013-05-27 03:55:00,74.4,66.0,30.09,NE,44,0.0,-999.0,76,-99.99,,,0.00,weatherlink.com 1.10,2013-05-27 07:55:00,
2013-05-27 04:10:00,74.2,67.0,30.09,ESE,105,1.0,-999.0,77,-99.99,,,0.00,weatherlink.com 1.10,2013-05-27 08:10:00,
2013-05-27 04:25:00,74.2,67.0,30.08,East,84,0.0,-999.0,78,-99.99,,,0.00,weatherlink.com 1.10,2013-05-27 08:25:00,
2013-05-27 04:40:00,74.2,67.0,30.08,East,96,0.0,-999.0,78,-99.99,,,0.00,weatherlink.com 1.10,2013-05-27 08:40:00,
2013-05-27 04:55:00,74.2,67.0,30.07,NNE,31,0.0,-999.0,79,-99.99,,,0.00,weatherlink.com 1.10,2013-05-27 08:55:00,
2013-05-27 05:11:00,74.1,68.0,30.08,East,96,0.0,-999.0,81,-99.99,,,0.00,weatherlink.com 1.10,2013-05-27 09:11:00,
2013-05-27 05:26:00,74.1,69.0,30.07,ESE,115,0.0,-999.0,83,-99.99,,,0.00,weatherlink.com 1.10,2013-05-27 09:26:00,
2013-05-27 05:41:00,74.3,69.0,30.08,East,98,0.0,-999.0,82,-99.99,,,0.00,weatherlink.com 1.10,2013-05-27 09:41:00,
2013-05-27 05:56:00,74.4,69.0,30.08,ESE,106,0.0,-999.0,82,-99.99,,,0.00,weatherlink.com 1.10,2013-05-27 09:56:00,
2013-05-27 06:11:00,74.5,69.0,30.09,ESE,110,0.0,-999.0,83,-99.99,,,0.00,weatherlink.com 1.10,2013-05-27 10:11:00,
2013-05-27 06:26:00,74.4,69.0,30.09,NE,46,0.0,-999.0,84,-99.99,,,0.00,weatherlink.com 1.10,2013-05-27 10:26:00,
2013-05-27 06:41:00,75.0,70.0,30.09,ENE,78,2.0,-999.0,83,-99.99,,,0.00,weatherlink.com 1.10,2013-05-27 10:41:00,
2013-05-27 06:56:00,75.5,70.0,30.09,ENE,62,4.0,-999.0,82,-99.99,,,0.00,weatherlink.com 1.10,2013-05-27 10:56:00,
2013-05-27 07:10:00,76.0,70.0,30.09,ESE,115,1.0,-999.0,82,-99.99,,,0.00,weatherlink.com 1.10,2013-05-27 11:10:00,
2013-05-27 07:26:00,77.5,70.0,30.10,East,82,0.0,-999.0,78,-99.99,,,0.00,weatherlink.com 1.10,2013-05-27 11:26:00,
2013-05-27 07:41:00,77.7,70.0,30.10,SSE,155,0.0,-999.0,78,-99.99,,,0.00,weatherlink.com 1.10,2013-05-27 11:41:00,
2013-05-27 07:56:00,77.7,71.0,30.11,ESE,103,2.0,-999.0,79,-99.99,,,0.00,weatherlink.com 1.10,2013-05-27 11:56:00,
2013-05-27 08:12:00,78.5,71.0,30.11,East,90,6.0,-999.0,77,-99.99,,,0.00,weatherlink.com 1.10,2013-05-27 12:12:00,
2013-05-27 08:26:00,79.0,71.0,30.11,SSE,156,1.0,-999.0,76,-99.99,,,0.00,weatherlink.com 1.10,2013-05-27 12:26:00,
2013-05-27 08:41:00,79.7,71.0,30.11,East,79,1.0,-999.0,75,-99.99,,,0.00,weatherlink.com 1.10,2013-05-27 12:41:00,
2013-05-27 08:56:00,80.4,72.0,30.11,East,80,4.0,-999.0,75,-99.99,,,0.00,weatherlink.com 1.10,2013-05-27 12:56:00,
2013-05-27 09:11:00,80.5,72.0,30.11,ESE,104,2.0,-999.0,74,-99.99,,,0.00,weatherlink.com 1.10,2013-05-27 13:11:00,
2013-05-27 09:26:00,80.6,72.0,30.11,East,92,8.0,-999.0,74,-99.99,,,0.00,weatherlink.com 1.10,2013-05-27 13:26:00,
2013-05-27 09:42:00,80.6,72.0,30.11,SE,128,5.0,-999.0,74,-99.99,,,0.00,weatherlink.com 1.10,2013-05-27 13:42:00,
2013-05-27 09:56:00,80.7,71.0,30.12,East,92,9.0,-999.0,73,-99.99,,,0.00,weatherlink.com 1.10,2013-05-27 13:56:00,
2013-05-27 10:11:00,80.8,72.0,30.12,ESE,120,8.0,-999.0,74,-99.99,,,0.00,weatherlink.com 1.10,2013-05-27 14:11:00,
2013-05-27 10:27:00,81.4,72.0,30.12,NE,42,4.0,-999.0,73,-99.99,,,0.00,weatherlink.com 1.10,2013-05-27 14:27:00,
2013-05-27 10:41:00,81.4,72.0,30.12,East,89,4.0,-999.0,73,-99.99,,,0.00,weatherlink.com 1.10,2013-05-27 14:41:00,
2013-05-27 10:57:00,81.5,71.0,30.12,ESE,112,4.0,-999.0,71,-99.99,,,0.00,weatherlink.com 1.10,2013-05-27 14:57:00,
2013-05-27 11:11:00,81.2,71.0,30.12,ENE,64,5.0,-999.0,72,-99.99,,,0.00,weatherlink.com 1.10,2013-05-27 15:11:00,
2013-05-27 11:26:00,82.1,72.0,30.13,ENE,70,3.0,-999.0,72,-99.99,,,0.00,weatherlink.com 1.10,2013-05-27 15:26:00,
2013-05-27 11:41:00,82.8,72.0,30.13,ENE,64,6.0,-999.0,70,-99.99,,,0.00,weatherlink.com 1.10,2013-05-27 15:41:00,
2013-05-27 11:56:00,83.6,72.0,30.13,East,90,4.0,-999.0,69,-99.99,,,0.00,weatherlink.com 1.10,2013-05-27 15:56:00,
2013-05-27 12:12:00,82.5,72.0,30.13,ESE,117,9.0,-999.0,70,-99.99,,,0.00,weatherlink.com 1.10,2013-05-27 16:12:00,
2013-05-27 12:26:00,82.1,72.0,30.13,NE,54,1.0,-999.0,71,-99.99,,,0.00,weatherlink.com 1.10,2013-05-27 16:26:00,
2013-05-27 12:41:00,82.4,72.0,30.13,ESE,109,1.0,-999.0,71,-99.99,,,0.00,weatherlink.com 1.10,2013-05-27 16:41:00,
2013-05-27 12:56:00,82.5,72.0,30.13,ENE,69,6.0,-999.0,70,-99.99,,,0.00,weatherlink.com 1.10,2013-05-27 16:56:00,
2013-05-27 13:11:00,83.0,72.0,30.13,ENE,58,3.0,-999.0,69,-99.99,,,0.00,weatherlink.com 1.10,2013-05-27 17:11:00,
2013-05-27 13:27:00,82.9,72.0,30.13,ESE,110,15.0,-999.0,70,-99.99,,,0.00,weatherlink.com 1.10,2013-05-27 17:27:00,
2013-05-27 13:41:00,82.9,72.0,30.13,East,92,8.0,-999.0,70,-99.99,,,0.00,weatherlink.com 1.10,2013-05-27 17:41:00,
2013-05-27 13:56:00,82.4,72.0,30.13,East,80,5.0,-999.0,71,-99.99,,,0.00,weatherlink.com 1.10,2013-05-27 17:56:00,
2013-05-27 14:12:00,82.1,72.0,30.12,ENE,78,2.0,-999.0,72,-99.99,,,0.00,weatherlink.com 1.10,2013-05-27 18:12:00,
2013-05-27 14:26:00,81.7,72.0,30.12,ENE,58,2.0,-999.0,73,-99.99,,,0.00,weatherlink.com 1.10,2013-05-27 18:26:00,
2013-05-27 14:42:00,81.5,72.0,30.11,ENE,75,8.0,-999.0,73,-99.99,,,0.00,weatherlink.com 1.10,2013-05-27 18:42:00,
2013-05-27 14:56:00,82.1,73.0,30.11,ESE,115,5.0,-999.0,73,-99.99,,,0.00,weatherlink.com 1.10,2013-05-27 18:56:00,
2013-05-27 15:12:00,83.5,72.0,30.10,East,86,2.0,-999.0,69,-99.99,,,0.00,weatherlink.com 1.10,2013-05-27 19:12:00,
2013-05-27 15:26:00,83.0,73.0,30.09,ENE,61,8.0,-999.0,71,-99.99,,,0.00,weatherlink.com 1.10,2013-05-27 19:26:00,
2013-05-27 15:41:00,82.9,72.0,30.09,ENE,76,2.0,-999.0,69,-99.99,,,0.00,weatherlink.com 1.10,2013-05-27 19:41:00,
2013-05-27 15:56:00,83.7,73.0,30.08,East,90,6.0,-999.0,69,-99.99,,,0.00,weatherlink.com 1.10,2013-05-27 19:56:00,
2013-05-27 16:12:00,83.4,73.0,30.07,East,90,6.0,-999.0,70,-99.99,,,0.00,weatherlink.com 1.10,2013-05-27 20:12:00,
2013-05-27 16:26:00,83.7,73.0,30.07,ESE,102,15.0,-999.0,69,-99.99,,,0.00,weatherlink.com 1.10,2013-05-27 20:26:00,
2013-05-27 16:41:00,83.5,73.0,30.06,East,89,5.0,-999.0,70,-99.99,,,0.00,weatherlink.com 1.10,2013-05-27 20:41:00,
2013-05-27 16:56:00,83.2,72.0,30.06,ENE,69,6.0,-999.0,70,-99.99,,,0.00,weatherlink.com 1.10,2013-05-27 20:56:00,
2013-05-27 17:12:00,83.4,72.0,30.06,NNE,30,11.0,-999.0,69,-99.99,,,0.00,weatherlink.com 1.10,2013-05-27 21:12:00,
2013-05-27 17:27:00,82.4,73.0,30.06,East,84,2.0,-999.0,72,-99.99,,,0.00,weatherlink.com 1.10,2013-05-27 21:27:00,
2013-05-27 17:41:00,81.6,73.0,30.06,ENE,61,6.0,-999.0,74,-99.99,,,0.00,weatherlink.com 1.10,2013-05-27 21:41:00,
2013-05-27 17:56:00,81.6,73.0,30.06,East,91,5.0,-999.0,74,-99.99,,,0.00,weatherlink.com 1.10,2013-05-27 21:56:00,
2013-05-27 18:11:00,81.4,72.0,30.06,SE,130,0.0,-999.0,74,-99.99,,,0.00,weatherlink.com 1.10,2013-05-27 22:11:00,
2013-05-27 18:26:00,81.1,73.0,30.06,East,80,3.0,-999.0,75,-99.99,,,0.00,weatherlink.com 1.10,2013-05-27 22:26:00,
2013-05-27 18:41:00,80.6,72.0,30.06,ENE,57,2.0,-999.0,76,-99.99,,,0.00,weatherlink.com 1.10,2013-05-27 22:41:00,
2013-05-27 18:57:00,80.1,72.0,30.06,SSE,150,4.0,-999.0,77,-99.99,,,0.00,weatherlink.com 1.10,2013-05-27 22:57:00,
2013-05-27 19:11:00,80.4,72.0,30.06,East,88,5.0,-999.0,75,-99.99,,,0.00,weatherlink.com 1.10,2013-05-27 23:11:00,
2013-05-27 19:26:00,80.0,73.0,30.06,ENE,77,6.0,-999.0,78,-99.99,,,0.00,weatherlink.com 1.10,2013-05-27 23:26:00,
2013-05-27 19:41:00,78.7,72.0,30.07,ESE,102,4.0,-999.0,81,-99.99,,,0.00,weatherlink.com 1.10,2013-05-27 23:41:00,
2013-05-27 19:56:00,77.3,71.0,30.07,SE,140,4.0,-999.0,82,-99.99,,,0.00,weatherlink.com 1.10,2013-05-27 23:56:00,
2013-05-27 20:11:00,75.6,71.0,30.08,East,97,4.0,-999.0,86,-99.99,,,0.00,weatherlink.com 1.10,2013-05-28 00:11:00,
2013-05-27 20:26:00,74.7,71.0,30.08,East,83,1.0,-999.0,87,-99.99,,,0.00,weatherlink.com 1.10,2013-05-28 00:26:00,
2013-05-27 20:42:00,74.2,71.0,30.08,NE,55,2.0,-999.0,90,-99.99,,,0.02,weatherlink.com 1.10,2013-05-28 00:42:00,
2013-05-27 20:57:00,74.9,72.0,30.07,East,84,5.0,-999.0,90,-99.99,,,0.02,weatherlink.com 1.10,2013-05-28 00:57:00,
2013-05-27 21:11:00,76.1,73.0,30.08,North,350,1.0,-999.0,89,-99.99,,,0.02,weatherlink.com 1.10,2013-05-28 01:11:00,
2013-05-27 21:26:00,76.3,73.0,30.07,East,89,3.0,-999.0,89,-99.99,,,0.02,weatherlink.com 1.10,2013-05-28 01:26:00,
2013-05-27 21:41:00,77.0,73.0,30.08,ESE,110,4.0,-999.0,86,-99.99,,,0.02,weatherlink.com 1.10,2013-05-28 01:41:00,
2013-05-27 21:56:00,77.6,72.0,30.08,SE,138,1.0,-999.0,83,-99.99,,,0.02,weatherlink.com 1.10,2013-05-28 01:56:00,
2013-05-27 22:12:00,77.9,72.0,30.09,ESE,123,2.0,-999.0,83,-99.99,,,0.02,weatherlink.com 1.10,2013-05-28 02:12:00,
2013-05-27 22:27:00,78.0,72.0,30.09,ESE,111,2.0,-999.0,82,-99.99,,,0.02,weatherlink.com 1.10,2013-05-28 02:27:00,
2013-05-27 22:42:00,78.0,72.0,30.09,ESE,108,7.0,-999.0,82,-99.99,,,0.02,weatherlink.com 1.10,2013-05-28 02:42:00,
2013-05-27 22:57:00,78.0,72.0,30.09,SE,133,5.0,-999.0,82,-99.99,,,0.02,weatherlink.com 1.10,2013-05-28 02:57:00,
2013-05-27 23:11:00,78.0,73.0,30.09,East,100,1.0,-999.0,83,-99.99,,,0.02,weatherlink.com 1.10,2013-05-28 03:11:00,
2013-05-27 23:27:00,77.9,72.0,30.10,East,92,2.0,-999.0,82,-99.99,,,0.02,weatherlink.com 1.10,2013-05-28 03:27:00,
2013-05-27 23:41:00,78.1,73.0,30.11,SE,126,7.0,-999.0,83,-99.99,,,0.02,weatherlink.com 1.10,2013-05-28 03:41:00,
2013-05-27 23:57:00,77.9,73.0,30.10,East,80,1.0,-999.0,84,-99.99,,,0.02,weatherlink.com 1.10,2013-05-28 03:57:00,